Time;durP1;ratioP1;P1;durP2;ratioP2;P2;SDS_P1;SDS_P2;PMS_P1;PMS_P2;Temp;Humidity;BMP_temperature;BMP_pressure;BME280_temperature;BME280_humidity;BME280_pressure;Samples;Min_cycle;Max_cycle;Signal;HPM_P1;HPM_P2
2021/06/15 00:02:18;;;;;;;4.70;3.75;;;19.50;70.00;;;;;;5071339;28;20476;-72
2021/06/15 00:04:44;;;;;;;5.63;3.60;;;19.50;70.20;;;;;;5071405;28;20032;-72
2021/06/15 00:07:10;;;;;;;5.25;3.78;;;19.40;70.10;;;;;;5072871;28;20031;-73
2021/06/15 00:09:35;;;;;;;4.18;3.47;;;19.40;70.20;;;;;;5071817;28;20024;-72
2021/06/15 00:12:03;;;;;;;5.38;3.60;;;19.40;70.20;;;;;;5072758;28;20025;-72
2021/06/15 00:14:29;;;;;;;4.20;3.10;;;19.40;70.30;;;;;;5071481;28;20028;-72
2021/06/15 00:16:54;;;;;;;4.28;3.05;;;19.30;70.20;;;;;;5071620;28;20115;-72
2021/06/15 00:19:20;;;;;;;5.60;3.75;;;19.40;70.90;;;;;;5072587;28;20064;-73
2021/06/15 00:21:46;;;;;;;4.72;3.42;;;19.40;70.30;;;;;;5071387;28;20036;-72
2021/06/15 00:24:12;;;;;;;4.00;3.40;;;19.30;70.20;;;;;;5072518;28;20029;-72
2021/06/15 00:26:38;;;;;;;5.10;3.05;;;19.40;70.20;;;;;;5071716;28;20035;-73
2021/06/15 00:29:04;;;;;;;6.30;3.67;;;19.30;70.10;;;;;;5071364;28;20017;-72
2021/06/15 00:31:30;;;;;;;5.38;3.50;;;19.30;70.20;;;;;;5072562;28;20602;-72
2021/06/15 00:33:55;;;;;;;4.15;3.22;;;19.30;70.30;;;;;;5071364;28;20127;-72
2021/06/15 00:36:21;;;;;;;4.95;3.25;;;19.20;70.30;;;;;;5071194;28;20395;-72
2021/06/15 00:38:47;;;;;;;4.15;3.53;;;19.30;70.30;;;;;;5072509;28;20059;-73
2021/06/15 00:41:13;;;;;;;4.20;3.50;;;19.20;70.30;;;;;;5071252;28;20476;-72
2021/06/15 00:43:39;;;;;;;5.03;3.40;;;19.20;70.30;;;;;;5072369;28;20059;-72
2021/06/15 00:46:05;;;;;;;5.18;3.55;;;19.20;70.40;;;;;;5071243;28;20492;-72
2021/06/15 00:48:36;;;;;;;4.05;3.10;;;19.20;70.50;;;;;;5072396;28;20027;-72
2021/06/15 00:51:06;;;;;;;4.05;2.88;;;19.20;70.50;;;;;;5072558;28;20055;-73
2021/06/15 00:53:34;;;;;;;6.00;3.22;;;19.10;70.50;;;;;;5071496;28;20056;-72
2021/06/15 00:56:00;;;;;;;5.00;3.20;;;19.10;70.40;;;;;;5071165;28;20032;-72
2021/06/15 00:58:26;;;;;;;6.10;3.40;;;19.10;70.30;;;;;;5071089;28;20040;-72
2021/06/15 01:00:52;;;;;;;4.07;2.83;;;19.10;70.30;;;;;;5070930;28;20032;-73
2021/06/15 01:03:19;;;;;;;4.53;3.10;;;19.10;70.40;;;;;;5072188;28;20037;-73
2021/06/15 01:05:46;;;;;;;5.03;3.28;;;19.00;70.40;;;;;;5071082;28;20029;-73
2021/06/15 01:08:21;;;;;;;3.95;2.78;;;19.00;70.50;;;;;;5072364;28;20388;-72
2021/06/15 01:11:02;;;;;;;6.35;3.40;;;19.00;70.50;;;;;;5071023;28;20373;-72
2021/06/15 01:13:55;;;;;;;4.35;3.03;;;19.00;70.60;;;;;;5074724;28;20067;-73
2021/06/15 01:16:40;;;;;;;5.97;3.27;;;19.00;70.60;;;;;;5074903;28;20044;-71
2021/06/15 01:19:39;;;;;;;4.13;3.15;;;18.90;70.50;;;;;;5074367;28;20279;-72
2021/06/15 01:22:25;;;;;;;3.65;3.05;;;18.90;70.60;;;;;;5074470;28;20033;-73
2021/06/15 01:25:13;;;;;;;4.07;3.00;;;18.80;70.60;;;;;;5074374;28;20411;-72
2021/06/15 01:28:01;;;;;;;6.35;2.83;;;18.80;70.70;;;;;;5074380;28;20073;-73
2021/06/15 01:30:35;;;;;;;4.53;2.80;;;18.80;70.60;;;;;;5074450;28;20459;-71
2021/06/15 01:33:05;;;;;;;4.13;3.05;;;18.70;70.50;;;;;;5074365;28;20029;-71
2021/06/15 01:35:34;;;;;;;4.47;3.35;;;18.80;70.60;;;;;;5074116;28;20573;-72
2021/06/15 01:38:09;;;;;;;4.03;2.85;;;18.80;70.60;;;;;;5075464;28;20107;-72
2021/06/15 01:40:47;;;;;;;3.05;2.78;;;18.80;70.60;;;;;;5074137;28;20043;-72
2021/06/15 01:43:21;;;;;;;3.20;2.65;;;18.80;70.50;;;;;;5074117;28;20098;-72
2021/06/15 01:45:51;;;;;;;4.55;2.83;;;18.70;70.40;;;;;;5074026;28;20025;-72
2021/06/15 01:48:59;;;;;;;5.18;2.60;;;18.80;70.40;;;;;;5074115;28;20029;-71
2021/06/15 01:51:26;;;;;;;4.80;2.60;;;18.80;70.30;;;;;;5073963;28;20102;-71
2021/06/15 01:54:09;;;;;;;4.47;2.70;;;18.80;70.20;;;;;;5075249;28;20028;-72
2021/06/15 01:56:38;;;;;;;4.80;3.00;;;18.80;70.20;;;;;;5073925;28;20047;-72
2021/06/15 01:59:07;;;;;;;5.00;2.72;;;18.80;70.10;;;;;;5073888;28;20040;-72
2021/06/15 02:01:42;;;;;;;3.33;2.40;;;18.90;70.00;;;;;;5074030;28;20029;-71
2021/06/15 02:04:27;;;;;;;4.47;2.70;;;18.90;69.90;;;;;;5074954;28;20025;-72
2021/06/15 02:06:54;;;;;;;4.13;2.65;;;18.80;69.80;;;;;;5075064;28;20016;-72
2021/06/15 02:09:22;;;;;;;4.68;2.92;;;18.80;69.80;;;;;;5074870;28;20032;-72
2021/06/15 02:11:49;;;;;;;2.50;2.15;;;18.80;69.80;;;;;;5074992;28;20025;-71
2021/06/15 02:14:25;;;;;;;4.82;2.95;;;18.70;69.70;;;;;;5073548;28;20381;-71
2021/06/15 02:16:53;;;;;;;4.40;2.60;;;18.70;69.80;;;;;;5073350;28;20571;-72
2021/06/15 02:19:21;;;;;;;5.05;2.70;;;18.70;69.90;;;;;;5073198;28;20045;-72
2021/06/15 02:21:53;;;;;;;5.28;2.83;;;18.70;69.90;;;;;;5073168;28;20024;-71
2021/06/15 02:24:22;;;;;;;2.85;2.58;;;18.70;70.00;;;;;;5074634;28;20423;-72
2021/06/15 02:26:50;;;;;;;2.92;2.63;;;18.60;70.00;;;;;;5073281;28;20044;-72
2021/06/15 02:29:16;;;;;;;5.10;3.33;;;18.70;70.00;;;;;;5073342;28;20109;-72
2021/06/15 02:31:52;;;;;;;4.85;3.67;;;18.70;70.00;;;;;;5073527;28;20044;-72
2021/06/15 02:34:21;;;;;;;4.57;3.35;;;18.70;70.80;;;;;;5073233;28;20116;-72
2021/06/15 02:36:48;;;;;;;4.07;2.90;;;18.60;70.20;;;;;;5074385;28;20107;-72
2021/06/15 02:39:19;;;;;;;4.15;3.17;;;18.60;70.30;;;;;;5074291;28;20029;-71
2021/06/15 02:41:45;;;;;;;6.70;3.60;;;18.60;70.30;;;;;;5073165;28;20079;-71
2021/06/15 02:44:18;;;;;;;5.32;3.20;;;18.60;70.20;;;;;;5072937;28;20480;-71
2021/06/15 02:46:46;;;;;;;4.10;2.92;;;18.60;70.30;;;;;;5072978;28;20028;-72
2021/06/15 02:49:18;;;;;;;4.43;2.80;;;18.50;70.30;;;;;;5072822;28;20024;-72
2021/06/15 02:52:12;;;;;;;3.47;2.90;;;18.60;70.30;;;;;;5073066;28;20499;-71
2021/06/15 02:54:47;;;;;;;;;;;18.60;70.30;;;;;;5073178;28;20075;-71
2021/06/15 02:57:14;;;;;;;4.10;2.97;;;18.50;70.10;;;;;;5074228;28;19904;-71
2021/06/15 02:59:41;;;;;;;4.38;3.08;;;18.50;70.80;;;;;;5073259;28;20082;-70
2021/06/15 03:02:07;;;;;;;5.30;2.63;;;18.40;70.20;;;;;;5072492;28;20480;-71
2021/06/15 03:04:32;;;;;;;2.90;2.55;;;18.40;70.20;;;;;;5072394;28;20023;-71
2021/06/15 03:06:58;;;;;;;4.70;3.13;;;18.40;70.20;;;;;;5072606;28;20025;-71
2021/06/15 03:09:24;;;;;;;4.45;2.75;;;18.40;70.20;;;;;;5072395;28;20021;-72
2021/06/15 03:12:26;;;;;;;4.65;3.00;;;18.40;70.20;;;;;;5072474;28;20476;-71
2021/06/15 03:15:02;;;;;;;4.40;2.80;;;18.40;70.20;;;;;;4976028;28;20023;-71
2021/06/15 03:17:30;;;;;;;3.97;2.30;;;18.30;70.10;;;;;;4976152;28;20034;-71
2021/06/15 03:20:11;;;;;;;3.25;2.20;;;18.30;70.10;;;;;;4992148;28;20125;-72
2021/06/15 03:22:56;;;;;;;3.72;2.20;;;18.30;70.10;;;;;;4975993;28;20181;-72
2021/06/15 03:25:30;;;;;;;3.08;2.58;;;18.30;70.00;;;;;;4975687;28;20173;-72
2021/06/15 03:28:01;;;;;;;4.68;2.35;;;18.30;69.90;;;;;;4975949;28;20488;-71
2021/06/15 03:30:29;;;;;;;3.58;2.28;;;18.30;69.90;;;;;;4976012;28;20041;-71
2021/06/15 03:33:01;;;;;;;3.20;2.20;;;18.30;69.80;;;;;;4975797;28;20030;-72
2021/06/15 03:35:30;;;;;;;4.07;2.50;;;18.40;69.80;;;;;;4975313;28;20532;-72
2021/06/15 03:38:00;;;;;;;4.00;1.83;;;18.40;69.70;;;;;;4975763;28;20030;-71
2021/06/15 03:40:29;;;;;;;3.40;2.03;;;18.40;69.60;;;;;;4975663;28;20023;-71
2021/06/15 03:42:57;;;;;;;3.13;2.08;;;18.40;69.50;;;;;;4975581;28;20034;-72
2021/06/15 03:45:28;;;;;;;2.67;2.00;;;18.50;69.40;;;;;;4991846;28;20030;-71
2021/06/15 03:47:55;;;;;;;2.95;1.95;;;18.50;69.30;;;;;;4986118;28;20407;-72
2021/06/15 03:50:22;;;;;;;4.07;2.25;;;18.50;69.20;;;;;;5071852;28;20017;-71
2021/06/15 03:52:52;;;;;;;3.13;2.03;;;18.50;69.20;;;;;;5071775;28;20115;-71
2021/06/15 03:55:20;;;;;;;2.38;2.05;;;18.50;69.30;;;;;;5071747;28;20488;-71
2021/06/15 03:57:47;;;;;;;3.47;2.00;;;18.50;69.20;;;;;;5071652;28;20025;-71
2021/06/15 04:00:23;;;;;;;2.70;2.28;;;18.50;69.10;;;;;;5073059;28;20024;-71
2021/06/15 04:02:53;;;;;;;3.95;2.35;;;18.50;69.10;;;;;;5071980;28;20031;-71
2021/06/15 04:05:20;;;;;;;4.63;2.30;;;18.40;69.10;;;;;;5071416;28;20025;-71
2021/06/15 04:07:46;;;;;;;3.53;2.17;;;18.40;69.10;;;;;;5071619;28;20021;-72
2021/06/15 04:10:13;;;;;;;5.82;2.08;;;18.40;69.10;;;;;;5071570;28;20115;-71
2021/06/15 04:12:40;;;;;;;2.53;1.65;;;18.40;69.00;;;;;;5071436;28;20032;-71
2021/06/15 04:15:08;;;;;;;3.47;1.77;;;18.30;68.90;;;;;;5071450;28;20013;-72
2021/06/15 04:17:38;;;;;;;2.95;1.70;;;18.30;68.90;;;;;;5072754;28;20523;-71
2021/06/15 04:20:06;;;;;;;3.00;1.83;;;18.30;68.80;;;;;;5064127;28;20127;-71
2021/06/15 04:25:54;;;;;;;2.92;1.70;;;18.40;68.40;;;;;;5073343;28;20047;-71
2021/06/15 04:28:20;;;;;;;4.30;1.83;;;18.40;68.20;;;;;;5071486;28;20029;-71
2021/06/15 04:30:48;;;;;;;2.90;1.80;;;18.40;68.00;;;;;;5071455;28;20070;-70
2021/06/15 04:33:16;;;;;;;3.70;1.80;;;18.40;68.00;;;;;;5071373;28;20033;-71
2021/06/15 04:35:53;;;;;;;2.97;1.33;;;18.30;68.00;;;;;;5071435;28;20021;-72
2021/06/15 04:38:34;;;;;;;3.75;1.42;;;18.30;68.00;;;;;;5071422;28;20021;-71
2021/06/15 04:41:17;;;;;;;3.13;1.33;;;18.30;67.90;;;;;;5071348;28;20120;-72
2021/06/15 04:44:09;;;;;;;2.65;1.45;;;18.20;67.80;;;;;;5071147;28;20025;-71
2021/06/15 04:46:46;;;;;;;1.92;1.10;;;18.20;67.80;;;;;;5073252;28;20046;-72
2021/06/15 04:49:27;;;;;;;3.40;1.27;;;18.10;67.70;;;;;;5076537;28;20476;-72
2021/06/15 04:51:57;;;;;;;1.35;1.10;;;18.20;67.70;;;;;;5076395;28;20488;-71
2021/06/15 04:54:31;;;;;;;2.97;1.40;;;18.20;67.40;;;;;;5075053;28;20031;-71
2021/06/15 04:56:57;;;;;;;1.38;0.82;;;18.20;67.30;;;;;;5075027;28;20059;-72
2021/06/15 04:59:23;;;;;;;2.47;1.15;;;18.20;67.30;;;;;;5074937;28;20086;-72
2021/06/15 05:01:50;;;;;;;3.03;1.42;;;18.20;67.20;;;;;;5074813;28;20031;-71
2021/06/15 05:04:17;;;;;;;3.42;1.42;;;18.30;67.10;;;;;;5074676;28;20033;-72
2021/06/15 05:06:44;;;;;;;3.03;1.20;;;18.30;66.90;;;;;;5076307;28;20035;-72
2021/06/15 05:09:13;;;;;;;1.98;1.20;;;18.20;66.80;;;;;;5074826;28;20021;-71
2021/06/15 05:11:39;;;;;;;3.03;1.17;;;18.20;66.80;;;;;;5074753;28;20024;-72
2021/06/15 05:14:11;;;;;;;1.80;1.00;;;18.20;66.70;;;;;;5074687;28;20445;-71
2021/06/15 05:16:38;;;;;;;1.40;1.00;;;18.20;66.60;;;;;;5074704;28;20484;-72
2021/06/15 05:19:05;;;;;;;3.08;1.02;;;18.20;66.50;;;;;;5075822;28;20051;-71
2021/06/15 05:21:40;;;;;;;2.33;1.17;;;18.20;66.40;;;;;;5074480;28;20391;-72
2021/06/15 05:24:31;;;;;;;1.15;0.73;;;18.20;66.30;;;;;;5074398;28;20028;-71
2021/06/15 05:26:58;;;;;;;3.63;1.10;;;18.20;66.20;;;;;;5058007;28;20034;-72
2021/06/15 05:29:23;;;;;;;3.33;0.98;;;18.20;66.20;;;;;;5075807;28;20025;-72
2021/06/15 05:31:49;;;;;;;2.42;0.93;;;18.30;66.10;;;;;;5074603;28;20506;-73
2021/06/15 05:34:15;;;;;;;2.05;0.70;;;18.30;65.90;;;;;;5074338;28;20032;-71
2021/06/15 05:36:40;;;;;;;3.03;0.77;;;18.40;65.70;;;;;;5074479;28;20029;-71
2021/06/15 05:39:06;;;;;;;3.25;1.00;;;18.50;65.40;;;;;;5075587;28;20032;-71
2021/06/15 05:41:33;;;;;;;1.55;0.80;;;18.60;65.30;;;;;;5074385;28;20035;-72
2021/06/15 05:43:58;;;;;;;2.50;0.90;;;18.60;65.20;;;;;;5075451;28;20036;-72
2021/06/15 05:46:24;;;;;;;2.20;1.08;;;18.70;65.00;;;;;;5075487;28;20020;-71
2021/06/15 05:48:50;;;;;;;1.45;0.82;;;18.80;64.80;;;;;;5075253;28;20056;-71
2021/06/15 05:51:15;;;;;;;2.13;0.93;;;18.90;64.70;;;;;;5074118;28;20060;-70
2021/06/15 05:53:41;;;;;;;2.78;0.98;;;19.10;64.60;;;;;;5074005;28;20044;-71
2021/06/15 05:56:07;;;;;;;3.22;0.98;;;19.20;64.40;;;;;;5075354;28;20037;-70
2021/06/15 05:58:32;;;;;;;4.90;1.20;;;19.30;64.30;;;;;;5074377;28;20033;-70
2021/06/15 06:00:58;;;;;;;3.38;0.90;;;19.30;64.10;;;;;;5073791;28;20024;-70
2021/06/15 06:03:33;;;;;;;1.88;0.75;;;19.30;64.00;;;;;;5073915;28;20024;-70
2021/06/15 06:08:43;;;;;;;1.85;0.80;;;19.40;63.70;;;;;;5073821;28;20040;-70
2021/06/15 06:11:09;;;;;;;4.65;0.80;;;19.30;63.40;;;;;;5073705;28;20036;-70
2021/06/15 06:13:35;;;;;;;1.25;0.57;;;19.40;63.40;;;;;;5074964;28;20024;-69
2021/06/15 06:16:05;;;;;;;4.00;1.00;;;19.40;63.20;;;;;;5073526;28;20036;-71
2021/06/15 06:18:33;;;;;;;1.15;0.70;;;19.40;62.80;;;;;;5074720;28;20040;-69
2021/06/15 06:20:58;;;;;;;2.63;1.02;;;19.40;62.80;;;;;;5073593;28;20111;-70
2021/06/15 06:23:24;;;;;;;1.75;0.85;;;19.40;62.80;;;;;;5074790;28;20542;-71
2021/06/15 06:25:50;;;;;;;4.00;1.00;;;19.50;62.70;;;;;;5074793;28;20031;-71
2021/06/15 06:28:15;;;;;;;2.08;0.73;;;19.50;62.60;;;;;;5073475;28;20365;-72
2021/06/15 06:30:41;;;;;;;2.10;0.70;;;19.60;62.40;;;;;;5074585;28;20053;-71
2021/06/15 06:33:07;;;;;;;1.80;0.85;;;19.70;62.20;;;;;;5073139;28;20068;-71
2021/06/15 06:35:32;;;;;;;2.33;0.90;;;19.70;62.00;;;;;;5074733;28;20029;-71
2021/06/15 06:37:58;;;;;;;3.45;1.00;;;19.80;61.90;;;;;;5073006;28;20120;-71
2021/06/15 06:40:25;;;;;;;4.07;1.20;;;19.80;61.70;;;;;;5074504;28;20484;-70
2021/06/15 06:42:51;;;;;;;3.13;1.10;;;19.80;61.60;;;;;;5074741;28;20020;-70
2021/06/15 06:45:17;;;;;;;2.75;0.82;;;19.70;61.60;;;;;;5073034;28;20041;-69
2021/06/15 06:47:43;;;;;;;2.17;1.00;;;19.70;61.50;;;;;;5073051;28;20017;-70
2021/06/15 06:50:09;;;;;;;5.53;1.05;;;19.60;61.50;;;;;;5072852;28;20408;-68
2021/06/15 06:52:35;;;;;;;2.53;0.80;;;19.60;61.50;;;;;;5073016;28;20032;-69
2021/06/15 06:55:00;;;;;;;2.65;0.80;;;19.50;61.60;;;;;;5074096;28;20024;-68
2021/06/15 06:57:26;;;;;;;3.05;0.90;;;19.50;61.70;;;;;;5072841;28;20390;-70
2021/06/15 06:59:52;;;;;;;3.30;1.10;;;19.50;61.60;;;;;;5074109;28;20487;-70
2021/06/15 07:02:17;;;;;;;5.47;1.05;;;19.50;61.60;;;;;;5072920;28;20028;-69
2021/06/15 07:04:43;;;;;;;1.98;0.70;;;19.50;61.30;;;;;;5072519;28;20025;-69
2021/06/15 07:07:10;;;;;;;2.42;0.95;;;19.60;61.30;;;;;;5073904;28;20133;-70
2021/06/15 07:09:35;;;;;;;3.20;0.90;;;19.60;61.00;;;;;;5072432;28;20034;-69
2021/06/15 07:12:01;;;;;;;1.88;0.80;;;19.70;61.50;;;;;;5073707;28;20025;-70
2021/06/15 07:14:27;;;;;;;3.00;0.77;;;19.70;60.60;;;;;;5072430;28;20510;-70
2021/06/15 07:16:52;;;;;;;3.22;1.00;;;19.80;60.50;;;;;;5073894;28;20404;-68
2021/06/15 07:19:18;;;;;;;2.25;0.93;;;19.80;60.20;;;;;;5072035;28;20060;-70
2021/06/15 07:21:43;;;;;;;1.83;0.80;;;19.70;60.00;;;;;;5073417;28;20034;-69
2021/06/15 07:24:09;;;;;;;4.05;0.82;;;19.70;60.00;;;;;;5072016;28;20029;-70
2021/06/15 07:26:35;;;;;;;2.53;0.68;;;19.70;60.00;;;;;;5073619;28;20025;-71
2021/06/15 07:29:01;;;;;;;2.13;0.75;;;19.70;59.60;;;;;;5072086;28;20031;-69
2021/06/15 07:31:27;;;;;;;2.60;0.90;;;19.70;58.90;;;;;;5073457;28;20052;-69
2021/06/15 07:33:53;;;;;;;2.33;0.65;;;19.60;58.70;;;;;;5073314;28;20028;-70
2021/06/15 07:36:19;;;;;;;1.65;0.50;;;19.70;58.70;;;;;;5072040;28;20491;-71
2021/06/15 07:38:44;;;;;;;2.50;0.60;;;19.80;58.60;;;;;;5073306;28;20032;-72
2021/06/15 07:41:10;;;;;;;4.65;0.95;;;19.90;58.50;;;;;;5071933;28;20032;-71
2021/06/15 07:43:37;;;;;;;3.78;0.75;;;19.90;58.20;;;;;;5073199;28;20036;-71
2021/06/15 07:46:03;;;;;;;3.38;1.00;;;20.00;57.90;;;;;;5072160;28;20021;-71
2021/06/15 07:48:29;;;;;;;2.67;0.80;;;20.10;57.80;;;;;;5073116;28;20032;-71
2021/06/15 07:50:55;;;;;;;3.22;0.90;;;20.10;57.70;;;;;;5071748;28;20066;-71
2021/06/15 07:53:22;;;;;;;3.10;0.70;;;20.20;57.50;;;;;;5073114;28;20107;-71
2021/06/15 07:55:48;;;;;;;1.85;0.65;;;20.20;57.40;;;;;;5073058;28;20139;-71
2021/06/15 07:58:13;;;;;;;1.98;0.82;;;20.30;57.40;;;;;;5073662;28;20028;-71
2021/06/15 08:00:40;;;;;;;2.47;0.70;;;20.40;57.20;;;;;;5072850;28;20526;-71
2021/06/15 08:03:06;;;;;;;2.60;0.63;;;20.40;57.10;;;;;;5071633;28;20016;-71
2021/06/15 08:05:31;;;;;;;2.83;0.75;;;20.40;57.00;;;;;;5072909;28;20059;-71
2021/06/15 08:07:57;;;;;;;2.75;1.00;;;20.50;56.80;;;;;;5072892;28;20082;-71
2021/06/15 08:10:24;;;;;;;1.83;0.82;;;20.50;56.70;;;;;;5073021;28;20542;-71
2021/06/15 08:12:50;;;;;;;3.08;0.70;;;20.50;56.80;;;;;;5071535;28;20025;-71
2021/06/15 08:15:20;;;;;;;5.57;1.00;;;20.50;56.60;;;;;;5071465;28;20530;-71
2021/06/15 08:17:46;;;;;;;3.38;1.13;;;20.50;56.40;;;;;;5071528;28;20024;-71
2021/06/15 08:20:12;;;;;;;3.20;0.85;;;20.50;56.30;;;;;;5074018;28;20389;-71
2021/06/15 08:22:38;;;;;;;4.25;0.80;;;20.50;56.30;;;;;;5079433;28;20082;-70
2021/06/15 08:25:05;;;;;;;2.55;0.90;;;20.50;56.30;;;;;;5079165;28;20049;-70
2021/06/15 08:27:34;;;;;;;2.33;0.80;;;20.60;56.30;;;;;;5079214;28;20070;-69
2021/06/15 08:29:59;;;;;;;2.30;0.77;;;20.60;56.20;;;;;;5077987;28;20059;-69
2021/06/15 08:32:25;;;;;;;1.35;0.70;;;20.60;56.20;;;;;;5079239;28;20437;-72
2021/06/15 08:34:51;;;;;;;3.30;1.00;;;20.70;56.00;;;;;;5077811;28;20480;-69
2021/06/15 08:37:17;;;;;;;3.13;0.73;;;20.80;56.00;;;;;;5079194;28;20032;-69
2021/06/15 08:39:42;;;;;;;1.48;0.60;;;20.80;55.90;;;;;;5078117;28;20436;-69
2021/06/15 08:42:08;;;;;;;5.32;1.20;;;20.80;55.50;;;;;;5079292;28;20030;-69
2021/06/15 08:44:35;;;;;;;3.35;0.90;;;20.80;55.40;;;;;;5078209;28;20040;-69
2021/06/15 08:47:01;;;;;;;2.80;0.80;;;20.80;55.40;;;;;;5077904;28;20051;-69
2021/06/15 08:49:26;;;;;;;3.13;0.90;;;20.80;55.20;;;;;;5077940;28;20485;-69
2021/06/15 08:51:54;;;;;;;1.75;0.70;;;20.90;55.10;;;;;;5077871;28;20170;-72
2021/06/15 08:54:20;;;;;;;1.55;0.80;;;20.90;54.70;;;;;;5077829;28;20032;-70
2021/06/15 08:56:46;;;;;;;1.05;0.55;;;20.80;54.50;;;;;;5077813;28;20032;-70
2021/06/15 08:59:21;;;;;;;2.47;0.85;;;20.80;54.60;;;;;;5078969;28;20047;-72
2021/06/15 09:01:49;;;;;;;0.95;0.65;;;20.90;54.80;;;;;;5078995;28;20107;-71
2021/06/15 09:04:15;;;;;;;2.88;0.68;;;21.00;54.90;;;;;;5078887;28;20028;-70
2021/06/15 09:06:41;;;;;;;3.25;0.90;;;21.00;54.90;;;;;;5079058;28;20035;-70
2021/06/15 09:09:07;;;;;;;2.58;0.82;;;21.10;55.00;;;;;;5079058;28;20062;-71
2021/06/15 09:11:55;;;;;;;2.25;0.90;;;21.10;55.20;;;;;;5077736;28;20024;-71
2021/06/15 09:14:41;;;;;;;2.75;0.80;;;21.10;55.20;;;;;;5079014;28;20032;-70
2021/06/15 09:17:27;;;;;;;1.75;0.80;;;21.20;55.30;;;;;;5077587;28;20063;-71
2021/06/15 09:19:57;;;;;;;2.80;0.60;;;21.20;55.40;;;;;;5077268;28;20052;-70
2021/06/15 09:22:33;;;;;;;4.47;0.80;;;21.20;55.50;;;;;;5077818;28;20066;-71
2021/06/15 09:24:59;;;;;;;1.00;0.73;;;21.20;55.60;;;;;;5077552;28;20090;-71
2021/06/15 09:27:33;;;;;;;3.88;1.15;;;21.20;55.50;;;;;;5077491;28;20021;-71
2021/06/15 09:30:02;;;;;;;2.60;0.80;;;21.10;55.30;;;;;;5077505;28;20020;-71
2021/06/15 09:32:30;;;;;;;2.47;0.70;;;21.10;55.30;;;;;;5074425;28;20035;-70
2021/06/15 09:34:59;;;;;;;1.65;0.63;;;21.10;55.30;;;;;;5075693;28;20021;-71
2021/06/15 09:37:31;;;;;;;3.70;0.80;;;21.10;55.30;;;;;;5074308;28;20035;-70
2021/06/15 09:39:58;;;;;;;2.60;1.10;;;21.10;55.10;;;;;;5075511;28;20025;-69
2021/06/15 09:42:23;;;;;;;1.83;0.57;;;21.20;55.10;;;;;;5075671;28;20137;-70
2021/06/15 09:44:49;;;;;;;1.52;0.57;;;21.20;55.00;;;;;;5075508;28;20043;-71
2021/06/15 09:47:15;;;;;;;2.33;0.70;;;21.20;54.70;;;;;;5075491;28;20388;-70
2021/06/15 09:49:43;;;;;;;3.78;0.60;;;21.30;54.40;;;;;;5074129;28;20017;-71
2021/06/15 09:52:24;;;;;;;1.15;0.50;;;21.30;54.30;;;;;;5073994;28;20492;-70
2021/06/15 09:54:52;;;;;;;1.25;0.50;;;21.40;53.90;;;;;;5075269;28;20548;-70
2021/06/15 09:57:41;;;;;;;3.08;0.70;;;21.40;53.80;;;;;;5075574;28;20052;-71
2021/06/15 10:00:22;;;;;;;2.30;0.88;;;21.50;53.50;;;;;;5075104;28;20021;-70
2021/06/15 10:02:57;;;;;;;0.88;0.50;;;21.50;53.10;;;;;;5073825;28;20015;-71
2021/06/15 10:05:37;;;;;;;3.20;0.70;;;21.50;52.90;;;;;;5075282;28;20464;-70
2021/06/15 10:08:08;;;;;;;2.70;0.90;;;21.60;52.70;;;;;;5073658;28;20029;-70
2021/06/15 10:10:36;;;;;;;1.73;0.40;;;21.60;52.70;;;;;;5073882;28;20025;-70
2021/06/15 10:13:03;;;;;;;3.30;0.50;;;21.70;52.90;;;;;;5073639;28;20020;-70
2021/06/15 10:15:30;;;;;;;1.50;0.75;;;21.70;53.00;;;;;;5074970;28;20123;-72
2021/06/15 10:17:57;;;;;;;1.80;0.70;;;21.80;52.80;;;;;;5074784;28;20420;-70
2021/06/15 10:20:33;;;;;;;3.55;0.57;;;21.80;52.50;;;;;;5074841;28;20528;-70
2021/06/15 10:23:00;;;;;;;1.92;0.60;;;21.80;52.40;;;;;;5056873;28;20488;-70
2021/06/15 10:25:31;;;;;;;0.77;0.30;;;21.80;52.10;;;;;;5074635;28;20480;-71
2021/06/15 10:27:58;;;;;;;3.15;0.90;;;21.80;52.00;;;;;;5074601;28;20431;-71
2021/06/15 10:30:34;;;;;;;1.67;0.50;;;21.90;51.70;;;;;;5074582;28;20110;-71
2021/06/15 10:33:04;;;;;;;1.75;0.63;;;22.00;51.40;;;;;;5074629;28;20035;-72
2021/06/15 10:35:58;;;;;;;2.03;0.70;;;22.10;51.60;;;;;;5056338;28;20028;-72
2021/06/15 10:38:29;;;;;;;3.67;0.80;;;22.20;51.40;;;;;;5071643;28;20044;-72
2021/06/15 10:40:59;;;;;;;1.95;0.60;;;22.40;51.20;;;;;;5056391;28;20032;-73
2021/06/15 10:43:43;;;;;;;1.60;0.80;;;22.60;51.00;;;;;;5073964;28;20103;-73
2021/06/15 10:46:11;;;;;;;2.30;0.60;;;22.70;50.80;;;;;;5056336;28;20029;-72
2021/06/15 10:48:45;;;;;;;1.50;0.70;;;22.80;50.60;;;;;;5074155;28;20032;-72
2021/06/15 10:51:21;;;;;;;3.00;0.73;;;23.00;50.50;;;;;;5074381;28;20024;-72
2021/06/15 10:53:47;;;;;;;2.25;0.70;;;23.10;49.80;;;;;;5074097;28;20107;-73
2021/06/15 10:56:16;;;;;;;3.88;0.80;;;23.20;49.70;;;;;;5073998;28;20122;-72
2021/06/15 10:58:47;;;;;;;1.52;0.60;;;23.20;50.30;;;;;;5056039;28;20187;-72
2021/06/15 11:01:17;;;;;;;7.20;1.00;;;23.30;49.70;;;;;;5055852;28;20020;-72
2021/06/15 11:03:53;;;;;;;14.23;1.20;;;23.40;49.60;;;;;;5055777;28;20035;-71
2021/06/15 11:06:28;;;;;;;3.13;0.90;;;23.50;49.40;;;;;;5056008;28;20476;-72
2021/06/15 11:09:03;;;;;;;2.70;0.80;;;23.60;49.30;;;;;;5055731;28;20110;-73
2021/06/15 11:11:29;;;;;;;1.50;0.73;;;23.80;49.10;;;;;;5073680;28;20365;-72
2021/06/15 11:14:04;;;;;;;3.15;0.80;;;23.90;49.00;;;;;;5055848;28;20025;-72
2021/06/15 11:16:37;;;;;;;3.22;0.98;;;24.00;48.70;;;;;;5073800;28;20111;-74
2021/06/15 11:19:12;;;;;;;;;;;24.00;48.10;;;;;;5060778;28;20373;-73
2021/06/15 11:21:49;;;;;;;1.63;0.63;;;24.00;48.30;;;;;;5073721;28;19904;-73
2021/06/15 11:24:26;;;;;;;3.72;0.98;;;24.00;48.40;;;;;;5073641;28;20031;-74
2021/06/15 11:27:02;;;;;;;1.30;0.55;;;24.00;47.60;;;;;;5073535;28;20024;-74
2021/06/15 11:29:39;;;;;;;2.63;0.90;;;24.00;47.50;;;;;;5071924;28;20023;-73
2021/06/15 11:32:26;;;;;;;2.00;0.73;;;24.00;47.70;;;;;;5072082;28;20024;-72
2021/06/15 11:34:55;;;;;;;2.08;0.60;;;24.20;47.40;;;;;;5072155;28;20025;-74
2021/06/15 11:37:22;;;;;;;2.00;0.60;;;24.30;47.30;;;;;;5072060;28;20347;-72
2021/06/15 11:39:48;;;;;;;1.85;0.55;;;24.50;47.20;;;;;;5072074;28;20383;-73
2021/06/15 11:42:24;;;;;;;1.60;0.60;;;24.60;46.90;;;;;;5071927;28;20025;-72
2021/06/15 11:45:03;;;;;;;2.72;0.90;;;24.80;47.30;;;;;;5073164;28;20039;-72
2021/06/15 11:47:47;;;;;;;3.28;0.70;;;24.90;46.50;;;;;;5071857;28;20503;-72
2021/06/15 11:50:28;;;;;;;;;;;25.00;46.00;;;;;;5072273;28;20016;-73
2021/06/15 11:53:08;;;;;;;2.83;0.73;;;25.10;46.40;;;;;;5071725;28;19999;-72
2021/06/15 11:55:37;;;;;;;1.70;0.70;;;25.10;46.10;;;;;;5070911;28;20028;-72
2021/06/15 11:58:18;;;;;;;2.28;0.63;;;25.20;45.90;;;;;;5071799;28;20025;-72
2021/06/15 12:00:46;;;;;;;1.35;0.57;;;25.20;45.70;;;;;;5073164;28;20028;-73
2021/06/15 12:03:24;;;;;;;6.07;0.70;;;25.40;45.60;;;;;;5071496;28;20514;-72
2021/06/15 12:05:59;;;;;;;1.30;0.70;;;25.50;45.40;;;;;;5072926;28;20063;-72
2021/06/15 12:09:21;;;;;;;3.13;0.60;;;25.60;45.40;;;;;;5073127;28;20030;-73
2021/06/15 12:11:48;;;;;;;3.03;0.88;;;25.80;45.30;;;;;;5072107;28;20392;-73
2021/06/15 12:14:14;;;;;;;2.22;0.88;;;25.90;45.30;;;;;;5071583;28;20082;-73
2021/06/15 12:16:39;;;;;;;2.40;0.93;;;25.90;45.20;;;;;;5071690;28;20032;-74
2021/06/15 12:19:05;;;;;;;2.97;0.80;;;26.00;45.30;;;;;;5071668;28;20055;-74
2021/06/15 12:21:34;;;;;;;2.13;0.80;;;26.10;45.00;;;;;;5072742;28;20021;-75
2021/06/15 12:24:04;;;;;;;2.28;0.70;;;26.20;44.90;;;;;;5071439;28;20507;-73
2021/06/15 12:26:34;;;;;;;2.25;0.82;;;26.30;44.80;;;;;;5071401;28;20016;-74
2021/06/15 12:29:03;;;;;;;3.72;0.82;;;26.30;44.70;;;;;;5071382;28;20400;-73
2021/06/15 12:31:34;;;;;;;5.20;0.80;;;26.40;44.60;;;;;;5071535;28;20465;-73
2021/06/15 12:34:09;;;;;;;2.22;0.70;;;26.50;44.50;;;;;;5071405;28;20028;-74
2021/06/15 12:36:45;;;;;;;1.27;0.60;;;26.60;44.50;;;;;;5072578;28;20071;-73
2021/06/15 12:39:13;;;;;;;3.10;1.00;;;26.70;44.30;;;;;;5072505;28;20071;-73
2021/06/15 12:41:46;;;;;;;2.50;0.80;;;26.80;44.10;;;;;;5072516;28;20397;-74
2021/06/15 12:44:13;;;;;;;1.52;0.68;;;26.90;44.10;;;;;;5071041;28;20035;-73
2021/06/15 12:46:40;;;;;;;1.63;0.73;;;27.00;44.10;;;;;;5072487;28;20464;-73
2021/06/15 12:49:17;;;;;;;2.25;0.80;;;27.00;44.00;;;;;;5071622;28;20403;-73
2021/06/15 12:51:51;;;;;;;2.58;1.00;;;27.10;43.90;;;;;;5072422;28;20024;-73
2021/06/15 12:54:21;;;;;;;2.00;0.90;;;27.20;43.70;;;;;;5072478;28;20032;-74
2021/06/15 12:57:05;;;;;;;2.85;0.82;;;27.20;43.60;;;;;;5071061;28;20024;-74
2021/06/15 12:59:33;;;;;;;2.60;0.68;;;27.30;43.50;;;;;;5071019;28;20029;-72
2021/06/15 13:02:09;;;;;;;1.92;0.70;;;27.40;43.50;;;;;;5070954;28;20395;-73
2021/06/15 13:04:47;;;;;;;2.20;0.80;;;27.40;43.40;;;;;;5070776;28;20024;-72
2021/06/15 13:07:13;;;;;;;4.13;0.90;;;27.50;43.10;;;;;;5074381;28;20036;-72
2021/06/15 13:09:39;;;;;;;1.90;0.75;;;27.50;42.80;;;;;;5076128;28;20081;-73
2021/06/15 13:12:07;;;;;;;1.73;0.80;;;27.40;42.70;;;;;;5076270;28;20487;-73